Aérodrome :
LOGIN :

S'inscrire | Disclaimer

   EN    FR    IT 

 










Légende :    VFR   VFR Marginal   IFR   IFR Intensif   IFR Très Intensif
Visi : 
Plafond : 
>= 8 km
>= 3000ft
5 à 8 km
1000 à 3000 ft
1500m à 5 km
500 à 1000 ft
800 à 1500m
200 à 500 ft
< 800m
< 200 ft
Symboles :   Orages  Brouillard  Fortes neiges  Fortes précipitations  Vent > 20 kt
SIGMETs :   Divers  Orages  Givrage  Turbulence  Onde Orograph.  Cendres Volcan.






- Altitude de l'aérodrome : 465 ft
- Code IATA : LEJ


EDDP - Leipzig Halle

DERNIER METAR :
  • 190620Z AUTO 32008KT 9999 VCSH BKN007 FEW///TCU 16/15 Q1013 NOSIG

METARs EXPIRÉS :
  • 190550Z AUTO 32009KT 9999 -SHRA BKN008 FEW///TCU 16/15 Q1013 NOSIG
  • 190520Z AUTO 32010KT 9999 OVC007 16/15 Q1013 NOSIG
  • 190450Z AUTO 32011KT 9999 BKN006 OVC015 15/15 Q1013 NOSIG
  • 190420Z AUTO 33007KT 9999 BKN006 OVC014 16/15 Q1012 NOSIG
  • 190350Z AUTO 32004KT 290V010 9999 FEW006 BKN016 15/15 Q1012 TEMPO BKN006
  • 190320Z AUTO 31004KT 270V340 9999 BKN011 15/15 Q1012 TEMPO BKN008
  • 190250Z AUTO 31006KT 280V340 9999 SCT018 16/15 Q1012 TEMPO BKN008
  • 190220Z AUTO 31010KT 9999 BKN007 OVC021 16/15 Q1012 TEMPO 3000 BR
  • 190150Z AUTO 31009KT 9999 BKN007 BKN047 16/15 Q1012 TEMPO 3000 BR

TAF TAF EDDP
Valide du 19 à 06h jusqu'au 20 à 06h UTC


190500Z 1906/2006 32008KT 9999 BKN007
BECMG 1907/1911 SCT012 BKN020
TEMPO 1911/1916 4500 -RA BKN008
BECMG 1918/1921 VRB03KT
BECMG 2004/2006 08007KT



MET'MAP, la Météo Aéronautique d'un coup d'oeil ! - Copyright ORBIFLY Décembre 2007 - Disclaimer

ORBIFLY MET'MAP TEAM :

Programmation & Développement : Alexandra Zaïnal
Sur une idée originale de : Baudouin d'Aumeries
Soutien technique & logistique : Manuel Goepfert
Assistance : Marc-Olivier Méhu




SOURCES & CREDITS :

   NOAA